메인 페이지
METAR-TAF:

METAR-TAF

공항 :

과테말라, 과테말라

라 아우로라 국제공항

위도: 14-35N, 경도: 090-31W, 고도: 1489m

현재 날씨관측

예보는 1 시간 0분 전, 18:00시(UTC)에 발표되었습니다.
북북동14kt
온도 18°C
습도 59%
기압 1028 hPa
시정 10km 이상
고도 20000ft 상공 구름 많음

METAR: MGGT 161800Z 02014KT CAVOK 18/10 Q1028 A3036 BKN200

시각: 13:00 (19:00 UTC)

예보

예보는 2 시간 0분 전, 17:00시(UTC)에 발표되었습니다.
예보 대상 시간: 16일 18시부터 17일 18시까지 (UTC)
16kt
시정 10km 이상
고도 1800ft 상공 구름 조금
전환 중
17일 03시부터 17일 05시까지 (UTC)
고도 1600ft 상공 구름 보통
전환 중
17일 15시부터 17일 17시까지 (UTC)
고도 1800ft 상공 구름 보통

TAF: MGGT 161700Z 1618/1718 36016KT 9999 FEW018 TX21/1620Z TN09/1712Z BECMG 1703/1705 SCT016 BECMG 1715/1717 SCT018

4,000개 이상의 공항 관측 자료 및 예보 (METAR 및 TAF 보고).

지도상에서 검색 가능한 기상관측소가 노란 점과 빨간 점으로 표시되어 있습니다.

기상관측소 명을 보려면 표시 위로 마우스를 이동하세요.

날씨 관측과 예보를 보려면 클릭하세요.

지도 변경 : 확대하려면 엑스 표시가 있는 녹색 버튼, 축소하려면 빼기 표시가 있는 녹색 버튼, 다음 페이지의 지도를 보려면 녹색 화살표를 클릭하세요.


METAR-TAF: